createdAt,value
2022-12-15T00:02:18.407Z,94076.88
2022-12-15T00:05:07.078Z,94077.25
2022-12-15T00:07:54.198Z,94066.25
2022-12-15T00:10:42.024Z,94054.41
2022-12-15T00:13:31.256Z,94050.19
2022-12-15T00:16:18.679Z,94044.38
2022-12-15T00:19:05.252Z,94046.44
2022-12-15T00:21:51.589Z,94039.56
2022-12-15T00:24:38.151Z,94018.13
2022-12-15T00:27:26.584Z,94006.25
2022-12-15T00:30:13.503Z,93996.84
2022-12-15T00:33:00.534Z,93973.38
2022-12-15T00:35:46.944Z,93972.59
2022-12-15T00:38:35.007Z,93970.19
2022-12-15T00:41:05.301Z,93963.19
2022-12-15T00:43:38.320Z,93977.41
2022-12-15T00:46:24.448Z,93989.44
2022-12-15T00:48:53.878Z,94009.91
2022-12-15T00:51:22.157Z,94019.13
2022-12-15T00:54:14.708Z,94015.13
2022-12-15T00:57:04.332Z,93992.63
2022-12-15T00:59:52.327Z,93996.47
2022-12-15T01:02:39.163Z,93995.47
2022-12-15T01:05:26.611Z,93984.84
2022-12-15T01:08:13.384Z,93987.84
2022-12-15T01:11:00.197Z,93977.41
2022-12-15T01:13:49.924Z,93963.78
2022-12-15T01:16:38.070Z,93958.53
2022-12-15T01:19:27.326Z,93955.16
2022-12-15T01:21:56.781Z,93962.56
2022-12-15T01:24:26.475Z,93960.75
2022-12-15T01:26:55.428Z,93962.78
2022-12-15T01:29:24.754Z,93943.31
2022-12-15T01:31:56.096Z,93945.50
2022-12-15T01:34:25.254Z,93955.16
2022-12-15T01:36:54.220Z,93958.97
2022-12-15T01:39:24.519Z,93957.75
2022-12-15T01:41:52.815Z,93956.13
2022-12-15T01:44:25.171Z,93944.88
2022-12-15T01:46:59.203Z,93958.72
2022-12-15T01:49:30.990Z,93943.28
2022-12-15T01:52:03.038Z,93931.25
2022-12-15T01:54:40.039Z,93934.28
2022-12-15T01:57:14.144Z,93935.66
2022-12-15T01:59:50.928Z,93948.31
2022-12-15T02:02:26.497Z,93951.91
2022-12-15T02:04:58.019Z,93959.09
2022-12-15T02:07:27.867Z,93962.31
2022-12-15T02:10:02.342Z,93944.47
2022-12-15T02:12:40.719Z,93955.09
2022-12-15T02:15:21.480Z,93935.66
2022-12-15T02:18:07.641Z,93933.63
2022-12-15T02:20:49.234Z,93944.50
2022-12-15T02:23:48.786Z,93946.88
2022-12-15T02:26:53.170Z,93955.13
2022-12-15T02:29:41.767Z,93962.94
2022-12-15T02:32:14.891Z,93977.41
2022-12-15T02:34:46.315Z,93980.59
2022-12-15T02:37:19.470Z,93995.84
2022-12-15T02:39:49.090Z,93979.16
2022-12-15T02:42:18.620Z,93993.19
2022-12-15T02:44:51.728Z,94007.63
2022-12-15T02:47:33.965Z,94011.81
2022-12-15T02:50:30.111Z,94019.63
2022-12-15T02:53:12.298Z,94037.91
2022-12-15T02:55:52.375Z,94021.94
2022-12-15T02:58:30.065Z,94024.56
2022-12-15T03:01:03.660Z,94013.91
2022-12-15T03:03:36.216Z,94019.94
2022-12-15T03:06:06.081Z,94015.13
2022-12-15T03:08:35.042Z,94017.94
2022-12-15T03:11:04.551Z,94024.97
2022-12-15T03:13:34.457Z,94026.31
2022-12-15T03:16:04.442Z,94018.94
2022-12-15T03:18:35.426Z,94011.66
2022-12-15T03:21:04.899Z,94015.00
2022-12-15T03:23:34.478Z,94004.78
2022-12-15T03:26:03.690Z,94004.78
2022-12-15T03:28:32.822Z,94000.31
2022-12-15T03:31:01.883Z,94013.41
2022-12-15T03:33:31.388Z,94019.03
2022-12-15T03:36:02.726Z,94010.69
2022-12-15T03:38:31.749Z,94016.72
2022-12-15T03:41:00.719Z,94009.63
2022-12-15T03:43:30.187Z,94022.25
2022-12-15T03:46:00.972Z,94016.44
2022-12-15T03:48:30.279Z,94028.63
2022-12-15T03:50:59.463Z,94024.00
2022-12-15T03:53:30.428Z,94024.59
2022-12-15T03:56:00.345Z,94024.00
2022-12-15T03:58:29.314Z,94019.97
2022-12-15T04:00:58.491Z,94013.13
2022-12-15T04:03:28.676Z,94001.03
2022-12-15T04:05:58.037Z,94019.13
2022-12-15T04:08:27.082Z,94032.38
2022-12-15T04:10:57.552Z,94039.22
2022-12-15T04:13:26.609Z,94055.91
2022-12-15T04:15:55.670Z,94036.47
2022-12-15T04:18:25.289Z,94040.44
2022-12-15T04:20:54.521Z,94052.69
2022-12-15T04:23:23.654Z,94053.94
2022-12-15T04:26:10.091Z,94070.78
2022-12-15T04:28:57.758Z,94052.66
2022-12-15T04:31:47.424Z,94063.34
2022-12-15T04:34:38.561Z,94071.19
2022-12-15T04:37:26.447Z,94068.19
2022-12-15T04:40:14.626Z,94087.88
2022-12-15T04:43:04.805Z,94092.16
2022-12-15T04:45:53.267Z,94098.94
2022-12-15T04:48:39.905Z,94100.56
2022-12-15T04:51:26.885Z,94112.63
2022-12-15T04:54:13.372Z,94109.78
2022-12-15T04:56:59.792Z,94117.00
2022-12-15T04:59:46.064Z,94117.19
2022-12-15T05:02:33.964Z,94121.41
2022-12-15T05:05:21.264Z,94134.66
2022-12-15T05:08:07.457Z,94130.44
2022-12-15T05:10:54.888Z,94145.31
2022-12-15T05:13:41.495Z,94151.38
2022-12-15T05:16:28.413Z,94142.53
2022-12-15T05:19:16.471Z,94149.97
2022-12-15T05:22:03.446Z,94157.22
2022-12-15T05:24:50.362Z,94172.50
2022-12-15T05:27:37.411Z,94171.34
2022-12-15T05:30:24.845Z,94175.97
2022-12-15T05:32:54.008Z,94188.03
2022-12-15T05:35:25.186Z,94193.25
2022-12-15T05:37:54.442Z,94188.03
2022-12-15T05:40:23.457Z,94200.88
2022-12-15T05:42:53.034Z,94201.28
2022-12-15T05:45:23.731Z,94199.28
2022-12-15T05:47:53.280Z,94204.91
2022-12-15T05:50:24.851Z,94201.28
2022-12-15T05:52:55.895Z,94212.34
2022-12-15T05:55:26.466Z,94202.50
2022-12-15T05:57:56.386Z,94202.47
2022-12-15T06:00:25.607Z,94222.81
2022-12-15T06:02:55.613Z,94219.19
2022-12-15T06:05:26.237Z,94221.56
2022-12-15T06:07:55.569Z,94233.06
2022-12-15T06:10:25.369Z,94233.47
2022-12-15T06:12:55.030Z,94247.72
2022-12-15T06:15:24.184Z,94234.06
2022-12-15T06:17:56.042Z,94238.28
2022-12-15T06:20:26.722Z,94245.31
2022-12-15T06:22:56.690Z,94238.66
2022-12-15T06:25:26.484Z,94236.25
2022-12-15T06:28:01.451Z,94250.50
2022-12-15T06:30:31.614Z,94255.94
2022-12-15T06:33:02.468Z,94260.38
2022-12-15T06:35:33.341Z,94264.75
2022-12-15T06:38:03.047Z,94274.03
2022-12-15T06:40:37.723Z,94281.06
2022-12-15T06:43:08.278Z,94277.63
2022-12-15T06:45:37.724Z,94274.81
2022-12-15T06:48:08.144Z,94280.81
2022-12-15T06:50:40.991Z,94281.03
2022-12-15T06:53:10.195Z,94281.22
2022-12-15T06:55:43.024Z,94280.19
2022-12-15T06:58:13.586Z,94288.22
2022-12-15T07:00:44.894Z,94303.69
2022-12-15T07:03:17.141Z,94305.72
2022-12-15T07:05:48.534Z,94307.13
2022-12-15T07:08:18.181Z,94309.13
2022-12-15T07:10:47.563Z,94320.97
2022-12-15T07:13:17.747Z,94314.13
2022-12-15T07:15:50.413Z,94316.34
2022-12-15T07:18:20.069Z,94316.34
2022-12-15T07:20:50.496Z,94317.94
2022-12-15T07:23:29.659Z,94327.78
2022-12-15T07:26:11.845Z,94328.00
2022-12-15T07:28:41.082Z,94333.25
2022-12-15T07:31:12.696Z,94344.13
2022-12-15T07:33:42.430Z,94342.91
2022-12-15T07:36:15.250Z,94357.81
2022-12-15T07:38:50.094Z,94347.13
2022-12-15T07:41:21.541Z,94343.72
2022-12-15T07:43:51.063Z,94351.94
2022-12-15T07:46:20.425Z,94351.50
2022-12-15T07:48:51.213Z,94348.66
2022-12-15T07:51:22.941Z,94348.63
2022-12-15T07:53:52.523Z,94353.25
2022-12-15T07:56:23.571Z,94365.09
2022-12-15T07:58:53.328Z,94363.47
2022-12-15T08:01:22.863Z,94369.47
2022-12-15T08:03:52.242Z,94359.59
2022-12-15T08:06:22.930Z,94362.19
2022-12-15T08:08:52.977Z,94355.69
2022-12-15T08:11:24.752Z,94364.50
2022-12-15T08:14:03.599Z,94371.53
2022-12-15T08:16:36.716Z,94369.34
2022-12-15T08:19:07.554Z,94381.38
2022-12-15T08:21:38.098Z,94383.78
2022-12-15T08:24:08.177Z,94390.81
2022-12-15T08:26:38.125Z,94399.50
2022-12-15T08:29:48.981Z,94405.78
2022-12-15T08:31:58.650Z,94397.53
2022-12-15T08:34:27.990Z,94394.47
2022-12-15T08:36:58.547Z,94405.53
2022-12-15T08:39:28.741Z,94410.53
2022-12-15T08:41:57.931Z,94406.63
2022-12-15T08:44:26.966Z,94402.56
2022-12-15T08:46:56.704Z,94405.75
2022-12-15T08:49:26.055Z,94395.44
2022-12-15T08:51:55.034Z,94408.50
2022-12-15T08:54:25.744Z,94406.28
2022-12-15T08:56:54.793Z,94409.28
2022-12-15T08:59:23.849Z,94415.44
2022-12-15T09:01:53.148Z,94406.09
2022-12-15T09:04:22.446Z,94409.72
2022-12-15T09:06:51.655Z,94405.25
2022-12-15T09:09:22.057Z,94401.63
2022-12-15T09:11:53.268Z,94408.59
2022-12-15T09:14:28.888Z,94408.50
2022-12-15T09:16:59.399Z,94414.06
2022-12-15T09:19:28.709Z,94411.97
2022-12-15T09:21:58.836Z,94402.63
2022-12-15T09:24:34.621Z,94413.66
2022-12-15T09:27:07.098Z,94415.06
2022-12-15T09:29:36.223Z,94410.09
2022-12-15T09:32:13.661Z,94411.69
2022-12-15T09:34:44.281Z,94427.63
2022-12-15T09:37:13.536Z,94432.44
2022-12-15T09:39:42.660Z,94427.19
2022-12-15T09:42:25.765Z,94407.47
2022-12-15T09:45:03.224Z,94412.19
2022-12-15T09:47:42.395Z,94420.19
2022-12-15T09:50:13.744Z,94418.84
2022-12-15T09:52:49.207Z,94430.91
2022-12-15T09:55:22.654Z,94435.16
2022-12-15T09:57:55.828Z,94430.75
2022-12-15T10:00:26.012Z,94427.25
2022-12-15T10:03:24.936Z,94421.38
2022-12-15T10:06:19.835Z,94428.56
2022-12-15T10:08:56.255Z,94419.38
2022-12-15T10:11:50.176Z,94418.59
2022-12-15T10:14:32.692Z,94418.00
2022-12-15T10:17:15.406Z,94418.72
2022-12-15T10:19:51.467Z,94425.41
2022-12-15T10:22:25.355Z,94421.88
2022-12-15T10:28:02.508Z,94442.84
2022-12-15T10:30:33.398Z,94439.19
2022-12-15T10:33:05.251Z,94448.00
2022-12-15T10:35:36.726Z,94449.78
2022-12-15T10:38:09.073Z,94448.22
2022-12-15T10:40:50.329Z,94446.22
2022-12-15T10:43:32.802Z,94444.88
2022-12-15T10:46:07.030Z,94442.19
2022-12-15T10:48:36.644Z,94445.16
2022-12-15T10:51:29.301Z,94441.16
2022-12-15T10:54:10.332Z,94444.00
2022-12-15T10:56:50.226Z,94443.09
2022-12-15T10:59:31.996Z,94448.88
2022-12-15T11:02:27.180Z,94449.34
2022-12-15T11:05:01.231Z,94452.22
2022-12-15T11:07:39.027Z,94448.22
2022-12-15T11:10:20.084Z,94441.00
2022-12-15T11:13:10.721Z,94446.53
2022-12-15T11:15:56.708Z,94443.91
2022-12-15T11:18:37.294Z,94443.75
2022-12-15T11:21:13.366Z,94434.66
2022-12-15T11:24:01.171Z,94447.78
2022-12-15T11:26:42.090Z,94456.03
2022-12-15T11:29:26.265Z,94454.13
2022-12-15T11:34:50.564Z,94450.94
2022-12-15T11:37:43.283Z,94450.25
2022-12-15T11:40:40.074Z,94451.75
2022-12-15T11:43:38.997Z,94442.72
2022-12-15T11:46:20.651Z,94446.97
2022-12-15T11:49:04.828Z,94461.69
2022-12-15T11:51:44.122Z,94455.63
2022-12-15T11:54:27.085Z,94457.84
2022-12-15T11:57:01.302Z,94469.69
2022-12-15T11:59:48.400Z,94465.50
2022-12-15T12:02:39.289Z,94470.03
2022-12-15T12:05:44.506Z,94467.50
2022-12-15T12:08:37.995Z,94471.28
2022-12-15T12:11:14.258Z,94486.47
2022-12-15T12:13:58.230Z,94485.47
2022-12-15T12:16:41.021Z,94480.28
2022-12-15T12:19:15.534Z,94483.63
2022-12-15T12:21:47.192Z,94483.03
2022-12-15T12:24:26.649Z,94496.03
2022-12-15T12:27:01.691Z,94499.59
2022-12-15T12:29:34.871Z,94497.25
2022-12-15T12:32:06.199Z,94486.44
2022-12-15T12:34:51.113Z,94494.28
2022-12-15T12:37:27.853Z,94498.72
2022-12-15T12:40:04.054Z,94501.94
2022-12-15T12:42:39.511Z,94507.38
2022-12-15T12:45:14.189Z,94514.94
2022-12-15T12:47:46.993Z,94508.00
2022-12-15T12:50:22.771Z,94499.97
2022-12-15T12:52:55.888Z,94510.00
2022-12-15T12:55:31.213Z,94515.31
2022-12-15T12:58:01.681Z,94514.81
2022-12-15T13:00:32.616Z,94516.50
2022-12-15T13:03:19.984Z,94518.03
2022-12-15T13:05:55.268Z,94512.69
2022-12-15T13:08:52.405Z,94523.38
2022-12-15T13:11:57.413Z,94520.31
2022-12-15T13:14:38.753Z,94531.31
2022-12-15T13:20:29.807Z,94533.38
2022-12-15T13:23:41.825Z,94533.81
2022-12-15T13:26:16.042Z,94536.34
2022-12-15T13:28:54.135Z,94541.34
2022-12-15T13:31:49.065Z,94544.59
2022-12-15T13:34:24.208Z,94542.53
2022-12-15T13:37:11.811Z,94545.94
2022-12-15T13:39:59.702Z,94552.94
2022-12-15T13:42:45.616Z,94550.66
2022-12-15T13:45:48.915Z,94555.34
2022-12-15T13:48:39.580Z,94553.09
2022-12-15T13:51:23.514Z,94553.91
2022-12-15T13:53:59.143Z,94562.69
2022-12-15T13:56:47.682Z,94562.59
2022-12-15T13:59:28.049Z,94570.56
2022-12-15T14:01:58.754Z,94572.41
2022-12-15T14:04:29.202Z,94576.69
2022-12-15T14:07:01.510Z,94582.16
2022-12-15T14:09:34.168Z,94581.22
2022-12-15T14:12:06.026Z,94585.66
2022-12-15T14:14:38.874Z,94591.50
2022-12-15T14:17:15.601Z,94600.56
2022-12-15T14:19:51.122Z,94600.78
2022-12-15T14:22:29.453Z,94605.06
2022-12-15T14:25:04.866Z,94600.09
2022-12-15T14:27:35.365Z,94599.28
2022-12-15T14:30:25.724Z,94608.41
2022-12-15T14:33:03.768Z,94614.53
2022-12-15T14:35:38.141Z,94607.34
2022-12-15T14:38:09.890Z,94612.38
2022-12-15T14:40:45.539Z,94611.84
2022-12-15T14:43:22.099Z,94621.22
2022-12-15T14:45:56.084Z,94628.75
2022-12-15T14:48:42.072Z,94623.31
2022-12-15T14:51:15.004Z,94631.84
2022-12-15T14:53:49.541Z,94626.63
2022-12-15T14:56:30.791Z,94621.41
2022-12-15T14:59:04.184Z,94626.91
2022-12-15T15:01:40.449Z,94630.81
2022-12-15T15:03:03.979Z,94428.09
2022-12-15T15:03:07.442Z,94536.44
2022-12-15T15:03:09.172Z,94447.72
2022-12-15T15:04:26.705Z,94640.91
2022-12-15T15:06:57.750Z,94628.25
2022-12-15T15:09:29.220Z,94641.97
2022-12-15T15:12:04.060Z,94641.22
2022-12-15T15:14:39.144Z,94646.66
2022-12-15T15:17:17.157Z,94633.78
2022-12-15T15:19:53.439Z,94646.13
2022-12-15T15:22:45.555Z,94647.53
2022-12-15T15:25:39.916Z,94649.56
2022-12-15T15:28:17.673Z,94654.22
2022-12-15T15:30:48.996Z,94653.41
2022-12-15T15:33:19.585Z,94662.28
2022-12-15T15:35:53.767Z,94673.38
2022-12-15T15:38:27.170Z,94667.53
2022-12-15T15:40:58.546Z,94658.88
2022-12-15T15:43:28.972Z,94665.31
2022-12-15T15:46:03.937Z,94658.06
2022-12-15T15:48:37.564Z,94659.25
2022-12-15T15:51:08.892Z,94663.91
2022-12-15T15:53:40.983Z,94668.94
2022-12-15T15:56:15.751Z,94668.56
2022-12-15T15:58:46.154Z,94666.34
2022-12-15T16:01:15.460Z,94671.38
2022-12-15T16:03:44.783Z,94666.13
2022-12-15T16:06:19.852Z,94662.50
2022-12-15T16:08:54.020Z,94663.31
2022-12-15T16:11:24.423Z,94663.31
2022-12-15T16:13:53.616Z,94666.34
2022-12-15T16:16:24.633Z,94680.44
2022-12-15T16:18:54.699Z,94675.63
2022-12-15T16:21:28.745Z,94678.63
2022-12-15T16:23:59.612Z,94682.28
2022-12-15T16:26:31.733Z,94684.09
2022-12-15T16:29:01.210Z,94678.44
2022-12-15T16:31:38.927Z,94691.53
2022-12-15T16:34:11.360Z,94703.59
2022-12-15T16:36:42.576Z,94698.59
2022-12-15T16:39:33.241Z,94710.06
2022-12-15T16:42:04.332Z,94711.47
2022-12-15T16:44:33.544Z,94709.84
2022-12-15T16:47:05.877Z,94720.72
2022-12-15T16:49:40.310Z,94718.31
2022-12-15T16:52:20.089Z,94715.88
2022-12-15T16:54:50.739Z,94720.69
2022-12-15T16:57:20.434Z,94726.94
2022-12-15T16:59:50.680Z,94731.59
2022-12-15T17:02:28.485Z,94725.94
2022-12-15T17:04:58.169Z,94736.19
2022-12-15T17:07:29.743Z,94744.03
2022-12-15T17:09:59.557Z,94738.81
2022-12-15T17:12:29.030Z,94728.13
2022-12-15T17:14:59.562Z,94733.94
2022-12-15T17:17:29.355Z,94731.56
2022-12-15T17:20:30.292Z,94736.16
2022-12-15T17:22:54.982Z,94739.38
2022-12-15T17:25:53.393Z,94743.41
2022-12-15T17:28:19.658Z,94742.38
2022-12-15T17:30:50.330Z,94752.03
2022-12-15T17:33:21.686Z,94760.69
2022-12-15T17:35:53.002Z,94760.88
2022-12-15T17:38:25.786Z,94763.69
2022-12-15T17:40:57.701Z,94768.47
2022-12-15T17:43:35.393Z,94766.84
2022-12-15T17:46:05.653Z,94756.16
2022-12-15T17:48:36.733Z,94759.56
2022-12-15T17:51:15.998Z,94758.78
2022-12-15T17:53:47.928Z,94758.16
2022-12-15T17:56:19.506Z,94759.38
2022-12-15T17:58:48.850Z,94766.38
2022-12-15T18:01:18.048Z,94763.53
2022-12-15T18:03:48.412Z,94766.56
2022-12-15T18:06:19.670Z,94764.50
2022-12-15T18:08:51.057Z,94755.28
2022-12-15T18:11:20.608Z,94759.94
2022-12-15T18:13:51.555Z,94767.59
2022-12-15T18:16:21.278Z,94770.25
2022-12-15T18:18:51.078Z,94766.03
2022-12-15T18:21:21.075Z,94769.41
2022-12-15T18:23:52.785Z,94769.59
2022-12-15T18:26:21.993Z,94779.84
2022-12-15T18:28:51.174Z,94775.63
2022-12-15T18:31:26.548Z,94774.81
2022-12-15T18:34:04.062Z,94772.63
2022-12-15T18:36:37.513Z,94785.28
2022-12-15T18:39:18.422Z,94773.63
2022-12-15T18:41:48.913Z,94774.81
2022-12-15T18:44:23.471Z,94768.75
2022-12-15T18:46:55.153Z,94762.16
2022-12-15T18:49:26.131Z,94763.94
2022-12-15T18:51:56.266Z,94761.16
2022-12-15T18:54:27.371Z,94769.00
2022-12-15T18:56:57.145Z,94770.56
2022-12-15T18:59:28.063Z,94773.28
2022-12-15T19:01:58.152Z,94771.06
2022-12-15T19:04:27.528Z,94771.88
2022-12-15T19:06:57.343Z,94777.13
2022-12-15T19:09:28.169Z,94772.09
2022-12-15T19:12:17.950Z,94777.94
2022-12-15T19:14:48.110Z,94781.56
2022-12-15T19:17:48.806Z,94778.97
2022-12-15T19:20:37.515Z,94776.56
2022-12-15T19:23:09.087Z,94778.56
2022-12-15T19:25:41.436Z,94780.78
2022-12-15T19:28:16.306Z,94787.59
2022-12-15T19:30:46.162Z,94782.13
2022-12-15T19:33:17.550Z,94792.97
2022-12-15T19:35:50.632Z,94790.56
2022-12-15T19:38:25.534Z,94791.94
2022-12-15T19:40:58.303Z,94790.38
2022-12-15T19:43:27.994Z,94798.97
2022-12-15T19:45:57.975Z,94801.72
2022-12-15T19:48:27.592Z,94811.56
2022-12-15T19:50:59.622Z,94804.84
2022-12-15T19:53:31.338Z,94803.28
2022-12-15T19:56:03.808Z,94803.25
2022-12-15T19:58:34.813Z,94813.31
2022-12-15T20:01:07.386Z,94811.34
2022-12-15T20:03:37.882Z,94809.72
2022-12-15T20:06:15.504Z,94804.50
2022-12-15T20:08:46.811Z,94814.94
2022-12-15T20:11:23.028Z,94807.50
2022-12-15T20:13:52.960Z,94798.44
2022-12-15T20:16:23.081Z,94794.25
2022-12-15T20:18:56.305Z,94793.06
2022-12-15T20:21:32.897Z,94789.94
2022-12-15T20:24:08.081Z,94791.72
2022-12-15T20:26:41.421Z,94787.31
2022-12-15T20:29:27.697Z,94783.75
2022-12-15T20:31:58.674Z,94777.31
2022-12-15T20:34:29.428Z,94777.31
2022-12-15T20:36:59.111Z,94770.63
2022-12-15T20:39:31.588Z,94766.41
2022-12-15T20:42:02.163Z,94773.28
2022-12-15T20:44:31.365Z,94776.31
2022-12-15T20:47:02.106Z,94774.53
2022-12-15T20:49:31.320Z,94783.38
2022-12-15T20:52:00.999Z,94787.34
2022-12-15T20:54:30.131Z,94791.00
2022-12-15T20:56:59.852Z,94799.22
2022-12-15T20:59:30.559Z,94800.81
2022-12-15T21:02:00.868Z,94801.22
2022-12-15T21:04:32.923Z,94801.28
2022-12-15T21:07:02.633Z,94798.97
2022-12-15T21:09:33.473Z,94797.53
2022-12-15T21:12:08.812Z,94807.91
2022-12-15T21:14:40.271Z,94811.44
2022-12-15T21:17:16.087Z,94800.97
2022-12-15T21:19:48.172Z,94787.25
2022-12-15T21:22:21.048Z,94792.50
2022-12-15T21:24:53.116Z,94789.69
2022-12-15T21:27:22.983Z,94790.53
2022-12-15T21:29:54.014Z,94799.53
2022-12-15T21:32:25.265Z,94780.97
2022-12-15T21:34:55.276Z,94781.81
2022-12-15T21:37:29.428Z,94772.59
2022-12-15T21:39:59.682Z,94768.00
2022-12-15T21:42:29.104Z,94774.25
2022-12-15T21:44:59.491Z,94773.88
2022-12-15T21:47:52.026Z,94777.03
2022-12-15T21:50:21.146Z,94785.06
2022-12-15T21:52:50.268Z,94793.34
2022-12-15T21:55:22.842Z,94801.56
2022-12-15T21:57:52.792Z,94793.78
2022-12-15T22:00:24.020Z,94787.50
2022-12-15T22:02:54.540Z,94789.13
2022-12-15T22:05:26.265Z,94774.44
2022-12-15T22:07:56.799Z,94773.22
2022-12-15T22:10:26.548Z,94765.78
2022-12-15T22:12:59.593Z,94760.97
2022-12-15T22:15:31.570Z,94754.94
2022-12-15T22:18:01.913Z,94757.03
2022-12-15T22:20:31.865Z,94746.31
2022-12-15T22:23:01.167Z,94751.97
2022-12-15T22:25:30.515Z,94752.75
2022-12-15T22:27:59.620Z,94744.50
2022-12-15T22:30:30.180Z,94737.06
2022-12-15T22:33:00.006Z,94746.03
2022-12-15T22:35:29.037Z,94747.44
2022-12-15T22:37:58.017Z,94741.41
2022-12-15T22:40:27.597Z,94744.03
2022-12-15T22:42:58.754Z,94740.53
2022-12-15T22:45:27.977Z,94740.00
2022-12-15T22:47:59.077Z,94742.59
2022-12-15T22:50:28.779Z,94742.59
2022-12-15T22:52:57.725Z,94744.59
2022-12-15T22:55:27.294Z,94745.59
2022-12-15T22:58:00.792Z,94750.00
2022-12-15T23:00:29.984Z,94757.66
2022-12-15T23:03:01.717Z,94749.78
2022-12-15T23:05:31.470Z,94758.84
2022-12-15T23:08:00.648Z,94754.13
2022-12-15T23:10:47.391Z,94746.09
2022-12-15T23:13:16.519Z,94758.97
2022-12-15T23:16:03.280Z,94768.81
2022-12-15T23:18:34.877Z,94762.19
2022-12-15T23:21:05.334Z,94760.75
2022-12-15T23:23:35.263Z,94768.59
2022-12-15T23:26:06.539Z,94770.59
2022-12-15T23:28:35.855Z,94778.97
2022-12-15T23:31:05.250Z,94760.16
2022-12-15T23:33:36.331Z,94760.56
2022-12-15T23:36:06.653Z,94739.03
2022-12-15T23:38:36.379Z,94739.47
2022-12-15T23:41:05.559Z,94738.97
2022-12-15T23:43:36.526Z,94738.16
2022-12-15T23:46:07.651Z,94750.06
2022-12-15T23:48:40.840Z,94733.97
2022-12-15T23:51:13.082Z,94724.25
2022-12-15T23:53:43.924Z,94728.06
2022-12-15T23:56:14.863Z,94727.50
2022-12-15T23:58:46.290Z,94731.09
